Time;durP1;ratioP1;P1;durP2;ratioP2;P2;SDS_P1;SDS_P2;PMS_P1;PMS_P2;Temp;Humidity;BMP_temperature;BMP_pressure;BME280_temperature;BME280_humidity;BME280_pressure;Samples;Min_cycle;Max_cycle;Signal;HPM_P1;HPM_P2
2023/05/04 00:02:23;;;;;;;5.35;3.40;;;;;;;;;;5064864;28;20111;-69
2023/05/04 00:05:10;;;;;;;8.57;4.32;;;;;;;;;;5086224;28;20024;-69
2023/05/04 00:07:56;;;;;;;6.93;3.40;;;;;;;;;;5073392;28;20536;-68
2023/05/04 00:10:41;;;;;;;6.93;3.95;;;;;;;;;;5086089;28;20410;-69
2023/05/04 00:13:26;;;;;;;6.07;4.13;;;;;;;;;;5069467;28;20036;-67
2023/05/04 00:16:11;;;;;;;6.50;3.53;;;;;;;;;;5072282;28;20083;-76
2023/05/04 00:18:57;;;;;;;12.50;3.88;;;;;;;;;;5061428;28;20122;-70
2023/05/04 00:21:42;;;;;;;5.88;3.72;;;;;;;;;;5072550;28;20436;-70
2023/05/04 00:24:27;;;;;;;11.15;3.53;;;;;;;;;;5065543;28;20043;-68
2023/05/04 00:27:12;;;;;;;7.57;4.03;;;;;;;;;;5080078;28;20040;-69
2023/05/04 00:29:58;;;;;;;6.00;3.72;;;;;;;;;;5071539;28;20039;-69
2023/05/04 00:32:43;;;;;;;7.35;3.17;;;;;;;;;;5070817;28;20024;-68
2023/05/04 00:35:30;;;;;;;7.90;3.33;;;;;;;;;;5067382;28;20119;-73
2023/05/04 00:38:16;;;;;;;7.88;3.67;;;;;;;;;;5052686;28;20415;-72
2023/05/04 00:41:01;;;;;;;6.40;3.95;;;;;;;;;;5059307;28;20490;-74
2023/05/04 00:43:46;;;;;;;4.80;3.30;;;;;;;;;;5073035;28;20414;-74
2023/05/04 00:46:32;;;;;;;7.93;3.75;;;;;;;;;;5060131;28;20016;-74
2023/05/04 00:49:18;;;;;;;5.55;3.30;;;;;;;;;;5085455;28;20123;-74
2023/05/04 00:52:04;;;;;;;5.82;3.83;;;;;;;;;;5063786;28;20556;-71
2023/05/04 00:54:50;;;;;;;5.05;3.20;;;;;;;;;;5085137;28;20112;-69
2023/05/04 00:57:35;;;;;;;6.97;3.70;;;;;;;;;;5077049;28;20038;-71
2023/05/04 01:00:21;;;;;;;6.63;4.05;;;;;;;;;;5064071;28;20032;-72
2023/05/04 01:03:08;;;;;;;6.97;3.72;;;;;;;;;;5072555;28;20032;-71
2023/05/04 01:05:56;;;;;;;6.00;3.63;;;;;;;;;;5069171;28;20028;-73
2023/05/04 01:08:46;;;;;;;5.75;3.53;;;;;;;;;;5076364;28;20040;-73
2023/05/04 01:11:35;;;;;;;6.65;4.05;;;;;;;;;;5075128;28;20020;-77
2023/05/04 01:14:21;;;;;;;6.85;3.83;;;;;;;;;;5067846;28;20146;-75
2023/05/04 01:17:07;;;;;;;8.25;4.32;;;;;;;;;;5057757;28;20024;-75
2023/05/04 01:19:52;;;;;;;8.45;4.18;;;;;;;;;;5089781;28;20074;-75
2023/05/04 01:22:38;;;;;;;7.00;3.85;;;;;;;;;;5074808;28;20047;-77
2023/05/04 01:25:26;;;;;;;7.32;4.15;;;;;;;;;;5073501;28;20074;-75
2023/05/04 01:28:15;;;;;;;5.85;3.50;;;;;;;;;;5090276;28;20498;-77
2023/05/04 01:31:02;;;;;;;5.57;3.47;;;;;;;;;;5082665;28;20115;-78
2023/05/04 01:33:49;;;;;;;7.53;3.58;;;;;;;;;;5070687;28;20497;-72
2023/05/04 01:36:34;;;;;;;10.23;4.40;;;;;;;;;;5064719;28;20028;-74
2023/05/04 01:39:20;;;;;;;6.63;3.42;;;;;;;;;;5074236;28;20031;-73
2023/05/04 01:42:06;;;;;;;7.82;3.88;;;;;;;;;;5066654;28;20395;-73
2023/05/04 01:44:51;;;;;;;9.00;4.20;;;;;;;;;;5049058;28;20082;-73
2023/05/04 01:47:36;;;;;;;10.30;3.80;;;;;;;;;;5072924;28;20028;-74
2023/05/04 01:50:21;;;;;;;6.13;3.65;;;;;;;;;;5073957;28;20038;-72
2023/05/04 01:53:07;;;;;;;6.57;3.85;;;;;;;;;;5075629;28;20054;-73
2023/05/04 01:55:52;;;;;;;6.88;4.10;;;;;;;;;;5067245;28;20116;-73
2023/05/04 01:58:37;;;;;;;7.88;4.07;;;;;;;;;;5071671;28;20028;-72
2023/05/04 02:01:22;;;;;;;7.60;3.78;;;;;;;;;;5076052;28;20365;-73
2023/05/04 02:04:07;;;;;;;6.00;3.35;;;;;;;;;;5093191;28;20028;-71
2023/05/04 02:06:53;;;;;;;6.50;3.80;;;;;;;;;;5062537;28;20029;-75
2023/05/04 02:09:38;;;;;;;8.35;3.53;;;;;;;;;;5074708;28;20351;-72
2023/05/04 02:12:23;;;;;;;11.77;4.40;;;;;;;;;;5072641;28;20102;-73
2023/05/04 02:15:09;;;;;;;7.18;3.83;;;;;;;;;;5075414;28;20051;-72
2023/05/04 02:17:54;;;;;;;7.35;4.60;;;;;;;;;;5075311;28;20032;-72
2023/05/04 02:20:39;;;;;;;7.15;4.35;;;;;;;;;;5071983;28;20133;-73
2023/05/04 02:23:25;;;;;;;7.78;4.70;;;;;;;;;;5074892;28;20031;-74
2023/05/04 02:26:10;;;;;;;6.97;4.28;;;;;;;;;;5073256;28;20089;-71
2023/05/04 02:28:55;;;;;;;10.30;5.22;;;;;;;;;;5073532;28;20430;-70
2023/05/04 02:31:40;;;;;;;8.85;4.32;;;;;;;;;;5087305;28;20038;-71
2023/05/04 02:34:26;;;;;;;7.57;4.82;;;;;;;;;;5082423;28;20099;-71
2023/05/04 02:37:11;;;;;;;7.25;4.50;;;;;;;;;;5075095;28;20040;-71
2023/05/04 02:39:57;;;;;;;7.38;4.88;;;;;;;;;;5079118;28;20040;-71
2023/05/04 02:42:42;;;;;;;10.98;4.95;;;;;;;;;;5091359;28;20052;-71
2023/05/04 02:45:27;;;;;;;7.28;4.35;;;;;;;;;;5075874;28;20039;-72
2023/05/04 02:48:12;;;;;;;8.57;4.57;;;;;;;;;;5072680;28;20050;-72
2023/05/04 02:50:58;;;;;;;11.23;5.47;;;;;;;;;;5056870;28;20499;-72
2023/05/04 02:53:43;;;;;;;6.78;4.43;;;;;;;;;;5053138;28;20024;-73
2023/05/04 02:56:28;;;;;;;7.05;4.25;;;;;;;;;;5073216;28;20489;-74
2023/05/04 02:59:13;;;;;;;6.68;4.70;;;;;;;;;;5066086;28;20433;-72
2023/05/04 03:01:59;;;;;;;9.55;5.10;;;;;;;;;;5069753;28;20036;-69
2023/05/04 03:04:44;;;;;;;11.10;5.88;;;;;;;;;;5072432;28;20028;-75
2023/05/04 03:07:29;;;;;;;8.35;5.15;;;;;;;;;;5067043;28;20024;-75
2023/05/04 03:10:15;;;;;;;9.13;5.30;;;;;;;;;;5060194;28;20433;-74
2023/05/04 03:13:04;;;;;;;11.88;5.63;;;;;;;;;;5075711;28;20031;-75
2023/05/04 03:15:49;;;;;;;11.75;6.75;;;;;;;;;;5075406;28;20119;-76
2023/05/04 03:18:35;;;;;;;9.52;5.65;;;;;;;;;;5085818;28;20051;-75
2023/05/04 03:21:21;;;;;;;11.70;5.55;;;;;;;;;;5070603;28;20056;-75
2023/05/04 03:24:06;;;;;;;9.82;5.65;;;;;;;;;;5073547;28;20556;-76
2023/05/04 03:26:51;;;;;;;7.70;5.20;;;;;;;;;;5072304;28;20036;-75
2023/05/04 03:29:36;;;;;;;8.15;5.28;;;;;;;;;;5069292;28;20028;-75
2023/05/04 03:32:21;;;;;;;10.48;6.13;;;;;;;;;;5067310;28;20028;-76
2023/05/04 03:35:08;;;;;;;9.38;5.70;;;;;;;;;;5072862;28;20529;-76
2023/05/04 03:37:53;;;;;;;10.40;5.63;;;;;;;;;;5078442;28;20308;-77
2023/05/04 03:40:38;;;;;;;11.65;5.80;;;;;;;;;;5083291;28;20032;-67
2023/05/04 03:43:23;;;;;;;10.05;5.80;;;;;;;;;;5072310;28;20058;-68
2023/05/04 03:46:09;;;;;;;9.05;5.63;;;;;;;;;;5072844;28;20032;-70
2023/05/04 03:48:54;;;;;;;8.77;6.03;;;;;;;;;;5071286;28;20036;-69
2023/05/04 03:51:39;;;;;;;10.73;6.00;;;;;;;;;;5072423;28;20372;-71
2023/05/04 03:54:25;;;;;;;11.27;5.97;;;;;;;;;;5071221;28;20039;-69
2023/05/04 03:57:10;;;;;;;9.23;5.80;;;;;;;;;;5069072;28;20036;-74
2023/05/04 03:59:55;;;;;;;8.27;5.70;;;;;;;;;;5063092;28;20063;-68
2023/05/04 04:02:40;;;;;;;10.52;6.20;;;;;;;;;;5058606;28;20456;-70
2023/05/04 04:05:26;;;;;;;11.32;6.60;;;;;;;;;;5070401;28;20028;-69
2023/05/04 04:08:13;;;;;;;11.55;6.28;;;;;;;;;;5071159;28;20105;-68
2023/05/04 04:10:58;;;;;;;10.52;6.40;;;;;;;;;;5080313;28;20370;-69
2023/05/04 04:13:43;;;;;;;13.57;6.20;;;;;;;;;;5078581;28;20073;-67
2023/05/04 04:16:28;;;;;;;11.80;6.85;;;;;;;;;;5064732;28;20054;-72
2023/05/04 04:19:13;;;;;;;17.77;7.40;;;;;;;;;;5070444;28;20032;-68
2023/05/04 04:21:59;;;;;;;9.57;5.97;;;;;;;;;;5055352;28;20455;-72
2023/05/04 04:24:44;;;;;;;12.00;6.10;;;;;;;;;;5073713;28;20516;-70
2023/05/04 04:27:29;;;;;;;12.77;6.70;;;;;;;;;;5087757;28;20067;-71
2023/05/04 04:30:15;;;;;;;14.73;6.50;;;;;;;;;;5064355;28;20031;-70
2023/05/04 04:33:01;;;;;;;10.48;6.00;;;;;;;;;;5062703;28;20032;-69
2023/05/04 04:35:46;;;;;;;13.13;6.95;;;;;;;;;;5081593;28;20459;-73
2023/05/04 04:38:31;;;;;;;11.35;6.75;;;;;;;;;;5071739;28;20024;-75
2023/05/04 04:41:16;;;;;;;10.55;6.15;;;;;;;;;;5075639;28;20086;-76
2023/05/04 04:44:02;;;;;;;10.00;6.78;;;;;;;;;;5076713;28;20184;-76
2023/05/04 04:46:48;;;;;;;13.50;7.35;;;;;;;;;;5070349;28;20616;-76
2023/05/04 04:49:33;;;;;;;13.50;7.68;;;;;;;;;;5058844;28;20035;-76
2023/05/04 04:52:19;;;;;;;11.90;6.40;;;;;;;;;;5073268;28;20127;-74
2023/05/04 04:55:04;;;;;;;14.02;8.20;;;;;;;;;;5070075;28;20112;-65
2023/05/04 04:57:49;;;;;;;13.13;6.97;;;;;;;;;;5096805;22;20052;-72
2023/05/04 05:00:35;;;;;;;15.40;7.28;;;;;;;;;;5069765;28;20034;-71
2023/05/04 05:03:23;;;;;;;13.75;7.57;;;;;;;;;;5072411;28;20028;-73
2023/05/04 05:06:08;;;;;;;11.93;7.90;;;;;;;;;;5072710;28;20094;-72
2023/05/04 05:08:53;;;;;;;11.57;7.00;;;;;;;;;;5074329;28;20677;-72
2023/05/04 05:11:38;;;;;;;11.90;7.90;;;;;;;;;;5077427;28;20036;-70
2023/05/04 05:14:24;;;;;;;12.60;7.40;;;;;;;;;;5076271;28;20060;-72
2023/05/04 05:17:09;;;;;;;12.88;6.80;;;;;;;;;;5060161;28;20475;-72
2023/05/04 05:19:54;;;;;;;12.85;7.20;;;;;;;;;;5073822;28;20024;-70
2023/05/04 05:22:40;;;;;;;11.30;7.30;;;;;;;;;;5075884;28;20031;-71
2023/05/04 05:25:25;;;;;;;12.52;8.55;;;;;;;;;;5063391;28;20447;-74
2023/05/04 05:28:12;;;;;;;10.73;7.03;;;;;;;;;;5075152;28;20032;-72
2023/05/04 05:30:57;;;;;;;10.90;7.95;;;;;;;;;;5068655;28;20035;-67
2023/05/04 05:33:42;;;;;;;11.27;7.13;;;;;;;;;;5073687;28;20107;-70
2023/05/04 05:36:28;;;;;;;10.40;6.45;;;;;;;;;;5059741;28;20028;-68
2023/05/04 05:39:13;;;;;;;11.85;7.45;;;;;;;;;;5073867;28;20032;-69
2023/05/04 05:41:58;;;;;;;13.60;8.55;;;;;;;;;;5071752;28;20052;-70
2023/05/04 05:44:43;;;;;;;12.20;7.50;;;;;;;;;;5071298;28;20032;-71
2023/05/04 05:47:29;;;;;;;11.20;8.18;;;;;;;;;;5070146;28;20045;-69
2023/05/04 05:50:14;;;;;;;12.70;7.25;;;;;;;;;;5070606;28;20031;-71
2023/05/04 05:52:59;;;;;;;14.25;7.18;;;;;;;;;;5053358;28;20103;-74
2023/05/04 05:55:45;;;;;;;14.32;8.07;;;;;;;;;;5068967;28;20028;-73
2023/05/04 05:58:30;;;;;;;11.80;7.72;;;;;;;;;;5069936;28;20475;-73
2023/05/04 06:01:15;;;;;;;12.00;6.97;;;;;;;;;;5072015;28;20043;-71
2023/05/04 06:04:01;;;;;;;14.55;7.35;;;;;;;;;;5074822;28;20151;-71
2023/05/04 06:06:46;;;;;;;13.65;7.00;;;;;;;;;;5060910;28;20411;-71
2023/05/04 06:09:31;;;;;;;10.80;6.90;;;;;;;;;;5069888;28;20024;-72
2023/05/04 06:12:16;;;;;;;10.05;6.30;;;;;;;;;;5067852;28;20036;-72
2023/05/04 06:15:02;;;;;;;8.60;5.57;;;;;;;;;;5071474;28;20015;-77
2023/05/04 06:17:48;;;;;;;11.15;6.93;;;;;;;;;;5053080;28;21434;-74
2023/05/04 06:20:33;;;;;;;10.82;6.97;;;;;;;;;;5066489;28;20081;-70
2023/05/04 06:23:19;;;;;;;11.13;7.07;;;;;;;;;;5052168;28;20125;-67
2023/05/04 06:26:07;;;;;;;9.60;6.32;;;;;;;;;;5068152;28;20038;-63
2023/05/04 06:28:53;;;;;;;12.07;7.22;;;;;;;;;;5067952;28;20402;-65
2023/05/04 06:31:40;;;;;;;10.25;6.80;;;;;;;;;;5065622;28;20089;-65
2023/05/04 06:34:25;;;;;;;10.80;6.32;;;;;;;;;;5067727;28;20020;-68
2023/05/04 06:37:10;;;;;;;10.93;7.13;;;;;;;;;;5070257;28;20036;-64
2023/05/04 06:39:55;;;;;;;12.07;7.20;;;;;;;;;;5068359;28;20116;-62
2023/05/04 06:42:41;;;;;;;10.13;7.10;;;;;;;;;;5070037;28;20497;-68
2023/05/04 06:45:26;;;;;;;9.32;6.45;;;;;;;;;;5071041;28;20075;-68
2023/05/04 06:48:11;;;;;;;9.80;6.82;;;;;;;;;;5070099;28;20036;-77
2023/05/04 06:50:57;;;;;;;9.88;6.95;;;;;;;;;;5066834;28;20734;-72
2023/05/04 06:53:42;;;;;;;10.35;7.28;;;;;;;;;;5070325;28;20027;-73
2023/05/04 06:56:27;;;;;;;12.73;7.85;;;;;;;;;;5055308;28;20051;-74
2023/05/04 06:59:12;;;;;;;11.45;7.70;;;;;;;;;;5069470;28;20067;-74
2023/05/04 07:01:58;;;;;;;11.48;7.47;;;;;;;;;;5067797;28;20163;-67
2023/05/04 07:04:43;;;;;;;12.05;8.20;;;;;;;;;;5068217;28;20043;-67
2023/05/04 07:07:28;;;;;;;14.35;8.45;;;;;;;;;;5067066;28;20031;-68
2023/05/04 07:10:14;;;;;;;11.27;8.27;;;;;;;;;;5052164;28;20039;-67
2023/05/04 07:12:59;;;;;;;11.23;7.35;;;;;;;;;;5067965;28;20028;-67
2023/05/04 07:15:44;;;;;;;13.35;8.48;;;;;;;;;;5067811;28;20016;-65
2023/05/04 07:18:30;;;;;;;13.23;8.38;;;;;;;;;;5066866;28;20020;-67
2023/05/04 07:21:15;;;;;;;10.25;6.78;;;;;;;;;;5069556;28;20066;-77
2023/05/04 07:24:01;;;;;;;14.27;8.05;;;;;;;;;;5064802;28;20081;-71
2023/05/04 07:26:46;;;;;;;10.85;6.93;;;;;;;;;;5067515;28;20031;-72
2023/05/04 07:29:31;;;;;;;11.73;6.70;;;;;;;;;;5066297;28;20127;-69
2023/05/04 07:32:16;;;;;;;8.07;6.10;;;;;;;;;;5067594;28;20028;-69
2023/05/04 07:35:02;;;;;;;11.43;7.15;;;;;;;;;;5068583;28;20074;-68
2023/05/04 07:37:48;;;;;;;9.05;6.68;;;;;;;;;;5069204;28;20051;-73
2023/05/04 07:40:33;;;;;;;10.00;6.63;;;;;;;;;;5066274;28;20039;-69
2023/05/04 07:43:18;;;;;;;13.25;5.85;;;;;;;;;;5068406;28;20453;-67
2023/05/04 07:46:03;;;;;;;11.48;8.02;;;;;;;;;;5066160;28;20024;-67
2023/05/04 07:48:48;;;;;;;11.30;6.63;;;;;;;;;;5067103;28;20514;-67
2023/05/04 07:51:34;;;;;;;9.88;6.40;;;;;;;;;;5067291;28;20119;-66
2023/05/04 07:54:19;;;;;;;11.77;6.93;;;;;;;;;;5068361;28;20039;-67
2023/05/04 07:57:04;;;;;;;9.52;5.60;;;;;;;;;;5077167;28;20526;-66
2023/05/04 07:59:52;;;;;;;7.47;5.80;;;;;;;;;;5069368;28;20410;-69
2023/05/04 08:02:38;;;;;;;9.68;6.68;;;;;;;;;;5067081;28;20108;-70
2023/05/04 08:05:23;;;;;;;11.52;7.32;;;;;;;;;;5051279;28;20554;-70
2023/05/04 08:08:29;;;;;;;7.88;5.68;;;;;;;;;;5032691;28;20039;-70
2023/05/04 08:11:38;;;;;;;10.45;6.45;;;;;;;;;;5064671;28;20119;-70
2023/05/04 08:14:23;;;;;;;10.38;5.90;;;;;;;;;;5044980;28;20032;-73
2023/05/04 08:17:09;;;;;;;7.15;5.30;;;;;;;;;;5078321;28;20677;-67
2023/05/04 08:19:54;;;;;;;13.07;5.25;;;;;;;;;;5066122;28;20052;-72
2023/05/04 08:22:39;;;;;;;12.48;5.57;;;;;;;;;;5057233;28;20052;-73
2023/05/04 08:25:24;;;;;;;5.18;4.68;;;;;;;;;;5073428;28;20024;-72
2023/05/04 08:28:10;;;;;;;7.68;4.97;;;;;;;;;;5076302;28;20034;-72
2023/05/04 08:30:56;;;;;;;8.32;4.60;;;;;;;;;;5074029;28;20125;-72
2023/05/04 08:33:41;;;;;;;7.55;4.78;;;;;;;;;;5072186;28;20024;-66
2023/05/04 08:36:26;;;;;;;5.05;3.92;;;;;;;;;;5075310;28;20330;-80
2023/05/04 08:39:12;;;;;;;7.32;4.82;;;;;;;;;;5074129;28;20035;-83
2023/05/04 08:41:57;;;;;;;7.80;5.15;;;;;;;;;;5074471;28;20106;-77
2023/05/04 08:44:42;;;;;;;9.13;4.82;;;;;;;;;;5074350;28;20063;-84
2023/05/04 08:47:27;;;;;;;7.68;5.25;;;;;;;;;;5073767;28;20058;-77
2023/05/04 08:50:13;;;;;;;5.45;4.05;;;;;;;;;;5072475;28;20060;-76
2023/05/04 08:53:01;;;;;;;5.65;4.50;;;;;;;;;;5074159;28;20020;-76
2023/05/04 08:55:48;;;;;;;7.13;3.92;;;;;;;;;;5072361;28;20103;-68
2023/05/04 08:58:41;;;;;;;6.18;4.25;;;;;;;;;;5072734;28;20030;-69
2023/05/04 09:01:27;;;;;;;5.68;4.07;;;;;;;;;;5066657;28;20568;-69
2023/05/04 09:04:12;;;;;;;6.28;4.53;;;;;;;;;;5075233;28;20036;-70
2023/05/04 09:06:57;;;;;;;9.15;4.93;;;;;;;;;;5055722;28;20035;-71
2023/05/04 09:09:43;;;;;;;6.57;4.40;;;;;;;;;;5072137;28;20135;-73
2023/05/04 09:12:28;;;;;;;7.70;4.47;;;;;;;;;;5074720;28;20036;-72
2023/05/04 09:15:15;;;;;;;5.43;4.43;;;;;;;;;;5052049;28;20467;-69
2023/05/04 09:18:02;;;;;;;8.57;5.20;;;;;;;;;;5063249;28;20027;-69
2023/05/04 09:20:48;;;;;;;8.73;3.63;;;;;;;;;;5074453;28;20598;-69
2023/05/04 09:23:43;;;;;;;10.23;4.97;;;;;;;;;;5071751;28;20047;-71
2023/05/04 09:26:32;;;;;;;6.50;4.15;;;;;;;;;;5063493;28;20459;-69
2023/05/04 09:29:17;;;;;;;6.05;4.18;;;;;;;;;;5074863;28;20102;-71
2023/05/04 09:32:03;;;;;;;6.68;4.70;;;;;;;;;;5073369;28;20028;-72
2023/05/04 09:34:49;;;;;;;7.47;4.32;;;;;;;;;;5057027;28;20451;-66
2023/05/04 09:37:41;;;;;;;6.28;5.00;;;;;;;;;;5072117;28;20485;-70
2023/05/04 09:40:31;;;;;;;6.18;4.22;;;;;;;;;;5072595;28;20106;-68
2023/05/04 09:43:17;;;;;;;4.72;3.55;;;;;;;;;;5071804;28;20557;-70
2023/05/04 09:46:02;;;;;;;5.28;3.70;;;;;;;;;;5073589;28;20027;-67
2023/05/04 09:48:51;;;;;;;5.13;3.50;;;;;;;;;;5073391;28;20047;-73
2023/05/04 09:51:37;;;;;;;3.40;2.85;;;;;;;;;;5074394;28;20069;-77
2023/05/04 09:54:22;;;;;;;6.90;4.07;;;;;;;;;;5070816;28;20040;-79
2023/05/04 09:57:12;;;;;;;7.30;4.28;;;;;;;;;;5077203;28;20043;-79
2023/05/04 09:59:57;;;;;;;;;;;;;;;;;;5071265;28;20628;-78
2023/05/04 10:02:42;;;;;;;5.97;3.70;;;;;;;;;;5085916;28;20200;-79
2023/05/04 10:05:28;;;;;;;5.15;3.83;;;;;;;;;;5091784;28;20043;-64
2023/05/04 10:08:14;;;;;;;6.35;3.50;;;;;;;;;;5094147;28;20034;-71
2023/05/04 10:10:59;;;;;;;5.68;3.50;;;;;;;;;;5085824;28;20474;-69
2023/05/04 10:13:45;;;;;;;6.28;2.92;;;;;;;;;;5093870;28;20107;-69
2023/05/04 10:16:30;;;;;;;4.93;3.47;;;;;;;;;;5094427;28;20055;-70
2023/05/04 10:19:16;;;;;;;7.13;3.78;;;;;;;;;;5092811;28;20487;-69
2023/05/04 10:22:11;;;;;;;4.75;3.45;;;;;;;;;;5094600;28;20038;-69
2023/05/04 10:25:18;;;;;;;7.32;4.20;;;;;;;;;;5092817;28;20033;-65
2023/05/04 10:28:16;;;;;;;4.38;2.70;;;;;;;;;;5094474;28;20411;-68
2023/05/04 10:31:01;;;;;;;6.05;3.17;;;;;;;;;;5077637;28;20015;-68
2023/05/04 10:33:47;;;;;;;8.27;3.60;;;;;;;;;;5084646;28;20031;-68
2023/05/04 10:36:36;;;;;;;5.22;3.75;;;;;;;;;;5091347;28;20316;-67
2023/05/04 10:39:29;;;;;;;6.72;3.38;;;;;;;;;;5092697;28;20020;-70
2023/05/04 10:42:14;;;;;;;5.70;2.72;;;;;;;;;;5081002;28;20058;-74
2023/05/04 10:44:59;;;;;;;3.67;2.70;;;;;;;;;;5076263;28;20035;-75
2023/05/04 10:47:44;;;;;;;5.10;3.28;;;;;;;;;;5092374;28;20020;-77
2023/05/04 10:50:49;;;;;;;4.28;3.20;;;;;;;;;;5088366;28;20107;-73
2023/05/04 10:53:34;;;;;;;4.78;3.40;;;;;;;;;;5093724;28;20395;-74
2023/05/04 10:56:26;;;;;;;4.88;3.05;;;;;;;;;;5093526;28;20044;-73
2023/05/04 10:59:13;;;;;;;5.57;3.10;;;;;;;;;;5069665;28;20032;-76
2023/05/04 11:02:03;;;;;;;5.40;3.03;;;;;;;;;;5089955;28;20028;-64
2023/05/04 11:05:06;;;;;;;4.40;3.38;;;;;;;;;;5093353;28;20035;-69
2023/05/04 11:07:51;;;;;;;3.28;2.70;;;;;;;;;;5090374;28;20049;-68
2023/05/04 11:10:37;;;;;;;5.88;3.45;;;;;;;;;;5091544;28;20037;-70
2023/05/04 11:13:22;;;;;;;7.28;3.20;;;;;;;;;;5091224;28;20208;-69
2023/05/04 11:16:11;;;;;;;4.88;3.45;;;;;;;;;;5077389;28;20036;-68
2023/05/04 11:19:05;;;;;;;8.82;4.18;;;;;;;;;;5088594;28;20080;-68
2023/05/04 11:21:50;;;;;;;4.32;3.15;;;;;;;;;;5090127;28;20051;-66
2023/05/04 11:24:43;;;;;;;8.65;3.05;;;;;;;;;;5087232;28;20112;-65
2023/05/04 11:27:29;;;;;;;5.60;3.72;;;;;;;;;;5075697;28;20566;-65
2023/05/04 11:30:14;;;;;;;3.28;2.75;;;;;;;;;;5088185;28;20080;-65
2023/05/04 11:33:00;;;;;;;4.20;2.92;;;;;;;;;;5087498;28;20374;-65
2023/05/04 11:35:45;;;;;;;4.80;3.03;;;;;;;;;;5092299;28;20019;-65
2023/05/04 11:38:30;;;;;;;7.07;3.92;;;;;;;;;;5092114;28;20067;-66
2023/05/04 11:41:16;;;;;;;4.57;2.60;;;;;;;;;;5092900;28;20463;-71
2023/05/04 11:44:02;;;;;;;4.85;2.90;;;;;;;;;;5089832;28;20112;-71
2023/05/04 11:46:50;;;;;;;3.70;2.78;;;;;;;;;;5089895;28;20102;-70
2023/05/04 11:49:36;;;;;;;5.72;3.20;;;;;;;;;;5090164;28;20046;-68
2023/05/04 11:52:23;;;;;;;4.93;3.10;;;;;;;;;;5083543;28;20027;-70
2023/05/04 11:55:08;;;;;;;9.25;3.33;;;;;;;;;;5081242;28;20027;-69
2023/05/04 11:57:57;;;;;;;5.97;3.80;;;;;;;;;;5091658;28;20066;-67
2023/05/04 12:00:47;;;;;;;4.78;3.25;;;;;;;;;;5089202;28;20067;-69
2023/05/04 12:03:33;;;;;;;4.90;3.33;;;;;;;;;;5087243;28;20039;-69
2023/05/04 12:06:29;;;;;;;3.70;2.60;;;;;;;;;;5090739;28;20036;-70
2023/05/04 12:09:15;;;;;;;4.28;2.90;;;;;;;;;;5090662;28;20028;-68
2023/05/04 12:12:00;;;;;;;6.80;3.10;;;;;;;;;;5092195;28;20035;-70
2023/05/04 12:14:58;;;;;;;4.05;2.92;;;;;;;;;;5082689;28;20061;-63
2023/05/04 12:17:43;;;;;;;5.45;3.72;;;;;;;;;;5087344;28;20106;-76
2023/05/04 12:20:28;;;;;;;7.47;4.00;;;;;;;;;;5091458;28;20128;-76
2023/05/04 12:23:47;;;;;;;4.95;3.67;;;;;;;;;;5091516;28;20036;-74
2023/05/04 12:26:33;;;;;;;7.15;4.00;;;;;;;;;;5090624;28;20137;-78
2023/05/04 12:29:18;;;;;;;4.32;3.60;;;;;;;;;;5087716;28;20067;-74
2023/05/04 12:32:03;;;;;;;4.80;3.30;;;;;;;;;;5072506;28;20043;-69
2023/05/04 12:34:48;;;;;;;4.70;3.33;;;;;;;;;;5089303;28;20065;-63
2023/05/04 12:37:34;;;;;;;5.82;3.83;;;;;;;;;;5090868;28;20119;-66
2023/05/04 12:40:19;;;;;;;7.43;4.40;;;;;;;;;;5084134;28;20111;-66
2023/05/04 12:43:04;;;;;;;6.50;4.00;;;;;;;;;;5091535;28;20055;-65
2023/05/04 12:45:50;;;;;;;4.43;3.10;;;;;;;;;;5091960;28;20053;-66
2023/05/04 12:48:36;;;;;;;6.55;4.15;;;;;;;;;;5089853;28;20027;-68
2023/05/04 12:51:21;;;;;;;6.85;4.60;;;;;;;;;;5090325;28;20505;-69
2023/05/04 12:54:06;;;;;;;4.25;2.95;;;;;;;;;;5087418;28;20028;-64
2023/05/04 12:56:52;;;;;;;4.93;3.78;;;;;;;;;;5088139;28;20036;-63
2023/05/04 12:59:37;;;;;;;5.78;3.45;;;;;;;;;;5076867;28;20034;-64
2023/05/04 13:02:23;;;;;;;5.18;3.42;;;;;;;;;;5090844;28;20145;-66
2023/05/04 13:05:08;;;;;;;5.88;3.50;;;;;;;;;;5090340;28;20622;-64
2023/05/04 13:07:53;;;;;;;6.90;4.13;;;;;;;;;;5095409;28;20036;-66
2023/05/04 13:10:38;;;;;;;5.05;2.90;;;;;;;;;;5095753;28;20051;-67
2023/05/04 13:13:27;;;;;;;6.05;4.03;;;;;;;;;;5094470;28;20069;-70
2023/05/04 13:16:12;;;;;;;11.45;4.22;;;;;;;;;;5091859;28;20067;-73
2023/05/04 13:18:58;;;;;;;5.82;4.18;;;;;;;;;;5094596;28;20046;-72
2023/05/04 13:21:43;;;;;;;5.40;3.83;;;;;;;;;;5094332;28;20027;-70
2023/05/04 13:24:28;;;;;;;5.03;3.47;;;;;;;;;;5092886;28;20145;-70
2023/05/04 13:27:13;;;;;;;5.85;3.70;;;;;;;;;;5095959;28;20766;-68
2023/05/04 13:30:02;;;;;;;6.05;4.13;;;;;;;;;;5095566;28;20031;-69
2023/05/04 13:32:47;;;;;;;7.05;4.20;;;;;;;;;;5094342;28;20043;-69
2023/05/04 13:35:33;;;;;;;5.75;3.72;;;;;;;;;;5091554;28;20043;-70
2023/05/04 13:38:18;;;;;;;8.30;4.60;;;;;;;;;;5093546;28;20031;-68
2023/05/04 13:41:03;;;;;;;5.90;4.15;;;;;;;;;;5093771;28;20026;-67
2023/05/04 13:43:48;;;;;;;5.40;3.63;;;;;;;;;;5089476;28;20039;-68
2023/05/04 13:46:35;;;;;;;7.10;4.10;;;;;;;;;;5086850;28;20113;-75
2023/05/04 13:49:20;;;;;;;6.35;3.70;;;;;;;;;;5088261;28;20282;-64
2023/05/04 13:52:05;;;;;;;5.13;3.55;;;;;;;;;;5090681;28;20016;-65
2023/05/04 13:54:51;;;;;;;6.13;3.72;;;;;;;;;;5094142;28;20039;-66
2023/05/04 13:57:36;;;;;;;5.70;3.47;;;;;;;;;;5092026;28;20040;-64
2023/05/04 14:00:21;;;;;;;5.40;3.38;;;;;;;;;;5091683;28;20036;-67
2023/05/04 14:03:06;;;;;;;5.68;4.00;;;;;;;;;;5090156;28;20370;-65
2023/05/04 14:05:52;;;;;;;6.82;4.25;;;;;;;;;;5093213;28;20034;-67
2023/05/04 14:08:37;;;;;;;5.68;3.83;;;;;;;;;;5077019;28;20387;-74
2023/05/04 14:11:23;;;;;;;7.85;4.25;;;;;;;;;;5092426;28;20065;-80
2023/05/04 14:14:08;;;;;;;7.35;4.53;;;;;;;;;;5092919;28;20019;-80
2023/05/04 14:16:53;;;;;;;8.48;4.50;;;;;;;;;;5089516;28;20050;-79
2023/05/04 14:19:38;;;;;;;6.25;3.80;;;;;;;;;;5088991;28;20051;-78
2023/05/04 14:22:24;;;;;;;12.02;4.75;;;;;;;;;;5093176;28;20554;-80
2023/05/04 14:25:09;;;;;;;6.53;4.07;;;;;;;;;;5090508;28;20084;-68
2023/05/04 14:27:54;;;;;;;6.65;4.82;;;;;;;;;;5077980;28;20187;-66
2023/05/04 14:30:39;;;;;;;6.25;3.67;;;;;;;;;;5092760;28;20539;-66
2023/05/04 14:33:24;;;;;;;6.65;4.28;;;;;;;;;;5093981;28;20060;-66
2023/05/04 14:36:10;;;;;;;8.85;4.90;;;;;;;;;;5074637;28;20080;-69
2023/05/04 14:38:55;;;;;;;8.52;4.25;;;;;;;;;;5093921;28;20402;-68
2023/05/04 14:41:40;;;;;;;9.50;4.68;;;;;;;;;;5091960;28;20020;-67
2023/05/04 14:44:27;;;;;;;7.93;4.68;;;;;;;;;;5094620;28;20036;-67
2023/05/04 14:47:12;;;;;;;6.47;4.55;;;;;;;;;;5082859;28;20049;-67
2023/05/04 14:49:58;;;;;;;9.00;4.43;;;;;;;;;;5092738;28;20350;-67
2023/05/04 14:52:43;;;;;;;5.63;3.60;;;;;;;;;;5093894;28;20035;-67
2023/05/04 14:55:29;;;;;;;7.57;3.85;;;;;;;;;;5093348;28;20023;-67
2023/05/04 14:58:15;;;;;;;8.88;5.65;;;;;;;;;;5093725;28;20115;-65
2023/05/04 15:01:01;;;;;;;6.78;4.15;;;;;;;;;;5072148;28;20024;-67
2023/05/04 15:03:47;;;;;;;8.10;4.40;;;;;;;;;;5090909;28;20047;-68
2023/05/04 15:06:32;;;;;;;5.43;4.28;;;;;;;;;;5080182;28;20022;-68
2023/05/04 15:09:18;;;;;;;6.63;4.57;;;;;;;;;;5092870;28;20142;-68
2023/05/04 15:12:03;;;;;;;7.18;4.13;;;;;;;;;;5089712;28;20102;-68
2023/05/04 15:14:48;;;;;;;7.28;3.95;;;;;;;;;;5094168;28;20031;-69
2023/05/04 15:17:33;;;;;;;6.97;4.72;;;;;;;;;;5090918;28;20474;-68
2023/05/04 15:20:19;;;;;;;6.85;4.57;;;;;;;;;;5093244;28;20016;-68
2023/05/04 15:23:09;;;;;;;7.72;4.40;;;;;;;;;;5082479;28;20027;-67
2023/05/04 15:25:54;;;;;;;6.85;3.63;;;;;;;;;;5093420;28;20027;-66
2023/05/04 15:28:39;;;;;;;5.30;3.85;;;;;;;;;;5094275;28;20028;-69
2023/05/04 15:31:25;;;;;;;6.80;4.00;;;;;;;;;;5073317;28;20031;-69
2023/05/04 15:34:10;;;;;;;6.75;4.25;;;;;;;;;;5086215;28;20020;-68
2023/05/04 15:36:56;;;;;;;7.47;4.28;;;;;;;;;;5073707;28;20491;-63
2023/05/04 15:39:41;;;;;;;6.65;4.40;;;;;;;;;;5094354;28;20077;-65
2023/05/04 15:42:26;;;;;;;6.53;3.58;;;;;;;;;;5092435;28;20462;-64
2023/05/04 15:45:11;;;;;;;7.63;3.97;;;;;;;;;;5092032;28;20035;-62
2023/05/04 15:47:58;;;;;;;8.95;3.60;;;;;;;;;;5091566;28;20467;-64
2023/05/04 15:50:43;;;;;;;7.30;3.67;;;;;;;;;;5075620;28;20031;-65
2023/05/04 15:53:28;;;;;;;5.68;4.03;;;;;;;;;;5090382;28;20470;-65
2023/05/04 15:56:14;;;;;;;8.52;4.35;;;;;;;;;;5093160;28;20105;-80
2023/05/04 15:58:59;;;;;;;8.00;3.88;;;;;;;;;;5079392;28;20027;-71
2023/05/04 16:01:45;;;;;;;6.05;4.05;;;;;;;;;;5091902;28;20023;-70
2023/05/04 16:04:30;;;;;;;7.25;3.83;;;;;;;;;;5091831;28;20358;-70
2023/05/04 16:07:15;;;;;;;9.50;4.65;;;;;;;;;;5093420;28;20109;-70
2023/05/04 16:10:00;;;;;;;6.07;4.25;;;;;;;;;;5084848;28;20110;-70
2023/05/04 16:12:46;;;;;;;8.02;3.75;;;;;;;;;;5065006;28;20051;-71
2023/05/04 16:15:31;;;;;;;5.85;3.88;;;;;;;;;;5091827;28;20466;-65
2023/05/04 16:18:17;;;;;;;7.93;4.70;;;;;;;;;;5091812;28;20032;-68
2023/05/04 16:21:02;;;;;;;6.85;4.10;;;;;;;;;;5092575;28;20019;-71
2023/05/04 16:23:47;;;;;;;6.47;4.38;;;;;;;;;;5085749;28;20391;-71
2023/05/04 16:26:33;;;;;;;13.43;5.28;;;;;;;;;;5083515;28;20442;-69
2023/05/04 16:29:18;;;;;;;10.65;4.13;;;;;;;;;;5089497;28;20031;-73
2023/05/04 16:32:03;;;;;;;5.70;4.00;;;;;;;;;;5071644;28;20028;-68
2023/05/04 16:34:48;;;;;;;8.75;4.28;;;;;;;;;;5088943;28;20165;-73